Time;durP1;ratioP1;P1;durP2;ratioP2;P2;SDS_P1;SDS_P2;PMS_P1;PMS_P2;Temp;Humidity;BMP_temperature;BMP_pressure;BME280_temperature;BME280_humidity;BME280_pressure;Samples;Min_cycle;Max_cycle;Signal;HPM_P1;HPM_P2
2021/04/05 00:00:42;;;;;;;1.73;1.48;;;20.20;37.00;;;;;;5052874;28;20021;-78
2021/04/05 00:03:09;;;;;;;3.20;1.42;;;20.20;37.10;;;;;;5048207;28;20060;-78
2021/04/05 00:05:38;;;;;;;1.92;1.63;;;20.20;37.00;;;;;;5028039;28;20048;-78
2021/04/05 00:08:06;;;;;;;2.45;1.92;;;20.20;37.00;;;;;;5036429;28;20112;-80
2021/04/05 00:10:41;;;;;;;2.90;1.60;;;20.10;37.10;;;;;;5016813;28;20026;-80
2021/04/05 00:13:13;;;;;;;1.63;1.25;;;20.20;37.10;;;;;;5025878;28;20017;-80
2021/04/05 00:15:39;;;;;;;2.05;1.35;;;20.20;37.10;;;;;;5032864;28;20025;-80
2021/04/05 00:18:05;;;;;;;1.85;1.23;;;20.20;37.10;;;;;;5031844;28;20049;-79
2021/04/05 00:20:42;;;;;;;2.17;1.23;;;20.10;37.10;;;;;;5033160;28;20036;-80
2021/04/05 00:23:08;;;;;;;1.60;0.98;;;20.10;37.50;;;;;;5028009;28;20021;-80
2021/04/05 00:25:34;;;;;;;1.92;1.50;;;20.10;37.10;;;;;;5033883;28;20029;-80
2021/04/05 00:28:01;;;;;;;2.17;1.40;;;20.10;37.10;;;;;;5029918;28;20473;-79
2021/04/05 00:30:33;;;;;;;1.42;1.23;;;20.10;37.10;;;;;;5025880;28;20063;-79
2021/04/05 00:33:00;;;;;;;1.67;1.02;;;20.10;37.00;;;;;;5048013;28;20025;-80
2021/04/05 00:35:28;;;;;;;2.53;1.30;;;20.10;37.10;;;;;;5028715;28;20104;-79
2021/04/05 00:37:56;;;;;;;1.50;1.40;;;20.10;37.10;;;;;;5043692;28;20501;-79
2021/04/05 00:40:31;;;;;;;2.55;1.45;;;20.10;37.10;;;;;;5009850;28;20048;-80
2021/04/05 00:42:57;;;;;;;1.95;1.23;;;20.10;37.10;;;;;;5036331;28;21687;-80
2021/04/05 00:45:24;;;;;;;6.47;1.60;;;20.10;37.10;;;;;;5045964;28;20072;-79
2021/04/05 00:47:52;;;;;;;1.65;1.10;;;20.10;37.10;;;;;;5042721;28;20674;-78
2021/04/05 00:50:44;;;;;;;1.40;1.00;;;20.10;37.10;;;;;;5030020;28;20027;-79
2021/04/05 00:53:12;;;;;;;1.67;1.23;;;20.10;37.10;;;;;;5028135;28;20049;-78
2021/04/05 00:55:39;;;;;;;1.73;1.30;;;20.10;37.10;;;;;;5030014;28;20055;-78
2021/04/05 00:58:05;;;;;;;2.20;1.60;;;20.10;37.10;;;;;;5042129;28;20086;-78
2021/04/05 01:00:46;;;;;;;2.15;1.50;;;20.10;37.00;;;;;;5049781;28;20497;-78
2021/04/05 01:03:17;;;;;;;1.98;1.50;;;20.10;37.00;;;;;;5026353;28;20530;-77
2021/04/05 01:05:45;;;;;;;2.88;1.45;;;20.10;37.00;;;;;;5025602;28;20033;-78
2021/04/05 01:08:14;;;;;;;1.50;0.95;;;20.00;37.00;;;;;;5043399;28;20558;-79
2021/04/05 01:10:40;;;;;;;1.58;1.42;;;20.00;37.00;;;;;;5013893;28;20048;-78
2021/04/05 01:13:06;;;;;;;1.70;1.60;;;20.00;37.00;;;;;;5028623;28;20090;-77
2021/04/05 01:15:32;;;;;;;1.65;1.55;;;20.10;37.20;;;;;;5024372;28;20029;-78
2021/04/05 01:17:58;;;;;;;2.08;1.30;;;20.00;37.00;;;;;;5043677;28;20497;-78
2021/04/05 01:20:26;;;;;;;2.10;1.42;;;20.00;37.00;;;;;;5024613;28;20029;-78
2021/04/05 01:22:52;;;;;;;1.02;0.93;;;20.00;37.00;;;;;;5027820;28;20108;-79
2021/04/05 01:25:21;;;;;;;1.10;0.88;;;20.00;37.00;;;;;;5028325;28;20076;-78
2021/04/05 01:27:49;;;;;;;1.70;1.58;;;20.00;37.00;;;;;;5024999;28;20111;-77
2021/04/05 01:30:28;;;;;;;3.03;1.38;;;20.00;37.00;;;;;;5013017;28;20031;-80
2021/04/05 01:33:05;;;;;;;1.30;1.00;;;20.00;37.00;;;;;;5048086;28;20508;-80
2021/04/05 01:35:40;;;;;;;1.67;1.05;;;20.00;37.00;;;;;;5045001;28;20029;-78
2021/04/05 01:38:07;;;;;;;1.30;1.20;;;20.00;37.00;;;;;;5027971;28;20039;-79
2021/04/05 01:40:36;;;;;;;1.55;1.08;;;20.00;37.00;;;;;;5027221;28;20614;-80
2021/04/05 01:43:02;;;;;;;1.98;1.30;;;20.00;37.00;;;;;;5045437;28;20037;-79
2021/04/05 01:45:29;;;;;;;1.60;1.10;;;20.00;37.00;;;;;;5028262;28;20082;-81
2021/04/05 01:47:55;;;;;;;1.88;0.98;;;20.00;37.00;;;;;;5025313;28;20021;-78
2021/04/05 01:50:21;;;;;;;2.10;1.05;;;20.00;37.10;;;;;;5044062;28;20029;-77
2021/04/05 01:52:47;;;;;;;2.42;1.40;;;20.00;37.00;;;;;;5049959;28;20635;-77
2021/04/05 01:55:14;;;;;;;2.90;0.90;;;20.00;37.00;;;;;;5035243;28;20021;-77
2021/04/05 01:57:40;;;;;;;2.40;1.25;;;20.00;37.00;;;;;;5027100;28;20405;-80
2021/04/05 02:00:20;;;;;;;1.67;1.02;;;20.00;37.00;;;;;;5033369;28;20029;-78
2021/04/05 02:02:46;;;;;;;1.83;1.20;;;20.00;37.00;;;;;;5042225;28;20024;-77
2021/04/05 02:05:13;;;;;;;1.33;0.77;;;20.00;37.00;;;;;;5030176;28;20100;-78
2021/04/05 02:07:39;;;;;;;1.42;1.23;;;20.00;37.00;;;;;;5043399;28;20021;-77
2021/04/05 02:10:18;;;;;;;1.20;0.88;;;20.00;37.00;;;;;;5043512;28;20037;-78
2021/04/05 02:12:46;;;;;;;1.60;1.15;;;19.90;37.00;;;;;;5043189;28;20520;-77
2021/04/05 02:15:14;;;;;;;1.70;1.05;;;20.00;37.00;;;;;;5042560;28;20032;-78
2021/04/05 02:17:40;;;;;;;2.75;1.50;;;19.90;37.00;;;;;;5022018;28;20104;-78
2021/04/05 02:20:11;;;;;;;1.65;0.80;;;20.00;37.00;;;;;;5030006;28;20025;-78
2021/04/05 02:22:44;;;;;;;1.50;1.00;;;20.00;37.00;;;;;;5025710;28;20100;-78
2021/04/05 02:25:18;;;;;;;1.88;0.93;;;20.00;37.10;;;;;;5026978;28;20063;-78
2021/04/05 02:27:47;;;;;;;1.70;0.82;;;19.90;37.00;;;;;;5023516;28;20068;-78
2021/04/05 02:30:22;;;;;;;1.98;1.23;;;20.00;37.00;;;;;;5006419;28;20018;-77
2021/04/05 02:33:00;;;;;;;2.05;1.10;;;19.90;37.00;;;;;;5030220;28;20029;-77
2021/04/05 02:35:32;;;;;;;1.08;0.88;;;19.90;37.00;;;;;;5044998;28;20025;-79
2021/04/05 02:38:03;;;;;;;2.47;1.27;;;20.00;37.00;;;;;;5025859;28;20021;-77
2021/04/05 02:40:29;;;;;;;1.50;1.17;;;19.90;37.00;;;;;;5012977;28;20055;-79
2021/04/05 02:42:57;;;;;;;1.88;1.20;;;19.90;36.90;;;;;;5026965;28;20026;-78
2021/04/05 02:45:25;;;;;;;3.35;1.00;;;19.90;36.90;;;;;;5010046;28;20026;-78
2021/04/05 02:47:54;;;;;;;2.35;0.90;;;19.90;36.90;;;;;;5024887;28;20021;-78
2021/04/05 02:50:23;;;;;;;1.70;1.00;;;20.00;37.00;;;;;;5027639;28;20030;-78
2021/04/05 02:52:49;;;;;;;2.40;1.05;;;19.90;36.90;;;;;;5022303;28;20044;-77
2021/04/05 02:55:15;;;;;;;1.80;1.30;;;19.90;36.90;;;;;;5021896;28;20021;-78
2021/04/05 02:57:44;;;;;;;1.20;0.73;;;19.90;36.90;;;;;;5042213;28;20064;-78
2021/04/05 03:00:11;;;;;;;1.60;1.27;;;19.90;36.90;;;;;;5025850;28;20039;-78
2021/04/05 03:02:38;;;;;;;1.25;1.05;;;19.90;36.90;;;;;;5026690;28;20048;-78
2021/04/05 03:05:06;;;;;;;1.55;1.00;;;19.90;36.90;;;;;;5020415;28;20072;-78
2021/04/05 03:07:36;;;;;;;1.65;0.80;;;19.90;36.90;;;;;;5027726;28;20100;-78
2021/04/05 03:10:08;;;;;;;2.10;0.80;;;19.90;36.90;;;;;;5024295;28;20021;-78
2021/04/05 03:12:35;;;;;;;2.05;1.00;;;19.90;36.90;;;;;;5006790;28;20548;-78
2021/04/05 03:15:10;;;;;;;2.97;1.15;;;19.90;36.90;;;;;;5010342;28;20025;-79
2021/04/05 03:17:37;;;;;;;2.22;1.10;;;19.90;36.90;;;;;;5023882;28;20021;-78
2021/04/05 03:20:07;;;;;;;2.58;0.82;;;19.90;36.90;;;;;;5024234;28;20029;-78
2021/04/05 03:22:34;;;;;;;1.13;0.85;;;19.90;36.90;;;;;;5048079;28;20025;-78
2021/04/05 03:25:01;;;;;;;2.03;0.80;;;19.90;36.90;;;;;;5050783;28;20013;-78
2021/04/05 03:27:27;;;;;;;1.73;0.90;;;19.90;36.90;;;;;;5026493;28;20545;-77
2021/04/05 03:29:55;;;;;;;3.00;0.95;;;19.90;36.90;;;;;;5047786;28;20029;-77
2021/04/05 03:32:22;;;;;;;1.88;1.00;;;19.90;36.90;;;;;;5031829;28;20029;-78
2021/04/05 03:34:55;;;;;;;1.77;1.00;;;19.90;36.80;;;;;;5034068;28;20124;-79
2021/04/05 03:37:22;;;;;;;1.48;1.30;;;19.90;36.90;;;;;;5036008;28;20143;-77
2021/04/05 03:39:51;;;;;;;2.05;1.35;;;19.80;36.80;;;;;;5047892;28;20029;-78
2021/04/05 03:42:22;;;;;;;1.00;0.70;;;19.90;36.80;;;;;;5048162;28;20051;-78
2021/04/05 03:45:10;;;;;;;1.58;1.00;;;19.80;36.80;;;;;;5010591;28;20110;-78
2021/04/05 03:48:13;;;;;;;2.05;1.13;;;19.80;36.80;;;;;;5052639;28;20527;-80
2021/04/05 03:51:04;;;;;;;1.67;1.13;;;19.80;36.70;;;;;;5016103;28;20048;-81
2021/04/05 03:53:37;;;;;;;2.03;1.08;;;19.80;36.70;;;;;;5004021;28;20029;-77
2021/04/05 03:56:12;;;;;;;1.30;0.70;;;19.80;36.70;;;;;;5051058;28;20017;-78
2021/04/05 03:58:40;;;;;;;2.33;1.52;;;19.80;36.80;;;;;;5042415;28;20116;-78
2021/04/05 04:01:10;;;;;;;2.00;1.10;;;19.80;36.70;;;;;;5050682;28;20021;-77
2021/04/05 04:03:53;;;;;;;1.88;1.38;;;19.80;36.70;;;;;;5028973;28;20022;-79
2021/04/05 04:06:25;;;;;;;2.42;1.25;;;19.80;36.70;;;;;;5035184;28;20418;-77
2021/04/05 04:08:53;;;;;;;2.35;0.80;;;19.80;36.70;;;;;;5047531;28;20044;-77
2021/04/05 04:11:25;;;;;;;1.38;0.93;;;19.80;36.70;;;;;;5028297;28;20183;-79
2021/04/05 04:13:55;;;;;;;1.77;0.88;;;19.80;36.70;;;;;;5015582;28;20028;-79
2021/04/05 04:16:22;;;;;;;1.98;1.05;;;19.80;36.70;;;;;;5028005;28;20021;-79
2021/04/05 04:18:50;;;;;;;1.58;1.00;;;19.80;36.70;;;;;;5029841;28;20515;-79
2021/04/05 04:21:17;;;;;;;2.50;1.20;;;19.80;36.70;;;;;;5029507;28;20100;-79
2021/04/05 04:23:44;;;;;;;1.90;1.00;;;19.80;36.70;;;;;;5029471;28;20099;-79
2021/04/05 04:26:10;;;;;;;1.63;1.02;;;19.80;36.70;;;;;;5042633;28;20017;-80
2021/04/05 04:28:36;;;;;;;4.68;1.33;;;19.80;36.70;;;;;;5046400;28;20072;-80
2021/04/05 04:31:04;;;;;;;1.98;0.90;;;19.80;36.70;;;;;;5027125;28;20026;-80
2021/04/05 04:33:31;;;;;;;1.58;0.80;;;19.80;36.70;;;;;;5025702;28;20068;-81
2021/04/05 04:35:58;;;;;;;2.05;1.10;;;19.80;36.70;;;;;;5049151;28;20116;-80
2021/04/05 04:38:25;;;;;;;3.17;1.30;;;19.80;36.70;;;;;;5031234;28;20025;-80
2021/04/05 04:40:52;;;;;;;1.92;0.90;;;19.80;36.70;;;;;;5029155;28;20104;-80
2021/04/05 04:43:18;;;;;;;1.00;0.80;;;19.80;36.70;;;;;;5016352;28;20726;-79
2021/04/05 04:45:45;;;;;;;2.58;1.48;;;19.70;36.70;;;;;;5032946;28;20021;-80
2021/04/05 04:48:11;;;;;;;1.40;0.80;;;19.80;36.70;;;;;;5030294;28;20018;-80
2021/04/05 04:50:38;;;;;;;3.67;1.20;;;19.80;36.70;;;;;;5050086;28;20048;-80
2021/04/05 04:53:04;;;;;;;1.30;0.90;;;19.70;36.60;;;;;;5035267;28;20020;-80
2021/04/05 04:55:31;;;;;;;1.67;0.95;;;19.70;36.60;;;;;;5050412;28;20040;-80
2021/04/05 04:57:59;;;;;;;1.52;1.13;;;19.70;36.60;;;;;;5032556;28;20029;-80
2021/04/05 05:00:29;;;;;;;1.63;0.70;;;19.80;37.20;;;;;;5049950;28;20067;-80
2021/04/05 05:02:57;;;;;;;1.70;0.85;;;19.70;36.60;;;;;;5033807;28;20060;-80
2021/04/05 05:05:26;;;;;;;1.33;1.02;;;19.70;36.60;;;;;;5033031;28;20519;-80
2021/04/05 05:07:53;;;;;;;1.58;1.05;;;19.80;36.70;;;;;;5029219;28;20022;-81
2021/04/05 05:10:20;;;;;;;2.40;1.10;;;19.70;36.60;;;;;;5027113;28;20029;-80
2021/04/05 05:12:47;;;;;;;1.05;0.80;;;19.80;36.70;;;;;;5052872;28;20016;-81
2021/04/05 05:15:14;;;;;;;1.50;0.88;;;19.70;36.60;;;;;;5041178;28;20529;-83
2021/04/05 05:17:45;;;;;;;2.10;1.30;;;19.70;37.10;;;;;;5042931;28;20017;-82
2021/04/05 05:20:14;;;;;;;3.17;1.35;;;19.70;36.60;;;;;;5042239;28;20039;-80
2021/04/05 05:22:46;;;;;;;0.88;0.52;;;19.80;36.70;;;;;;5028206;28;20501;-81
2021/04/05 05:25:16;;;;;;;1.20;0.73;;;19.80;36.60;;;;;;5045764;28;20027;-79
2021/04/05 05:27:46;;;;;;;1.60;1.05;;;19.90;36.50;;;;;;5024406;28;20047;-80
2021/04/05 05:30:20;;;;;;;2.03;0.60;;;20.00;36.40;;;;;;5027022;28;20021;-79
2021/04/05 05:32:48;;;;;;;1.60;0.70;;;20.20;36.30;;;;;;5010913;28;20033;-79
2021/04/05 05:35:16;;;;;;;1.27;0.75;;;20.30;36.20;;;;;;5026724;28;20052;-79
2021/04/05 05:37:43;;;;;;;2.35;1.40;;;20.40;35.90;;;;;;5047075;28;20028;-80
2021/04/05 05:40:15;;;;;;;1.25;0.60;;;20.60;35.80;;;;;;5029405;28;20554;-80
2021/04/05 05:43:09;;;;;;;1.05;0.60;;;20.60;35.70;;;;;;5022341;28;20083;-79
2021/04/05 05:46:07;;;;;;;1.42;0.90;;;20.70;35.60;;;;;;5008993;28;20042;-79
2021/04/05 05:49:11;;;;;;;1.58;0.60;;;20.70;35.50;;;;;;5039196;28;20026;-79
2021/04/05 05:51:56;;;;;;;2.17;0.80;;;20.80;35.50;;;;;;5033642;28;20033;-80
2021/04/05 05:54:39;;;;;;;2.22;0.63;;;20.80;35.40;;;;;;5008791;28;20021;-79
2021/04/05 05:57:21;;;;;;;2.63;0.88;;;20.80;35.40;;;;;;5027074;28;20501;-80
2021/04/05 06:00:06;;;;;;;1.85;0.75;;;20.90;35.50;;;;;;5046708;28;20035;-80
2021/04/05 06:02:43;;;;;;;1.73;0.70;;;20.90;35.40;;;;;;5032827;28;20548;-77
2021/04/05 06:05:22;;;;;;;1.63;0.77;;;20.90;35.40;;;;;;5045021;28;20112;-77
2021/04/05 06:08:10;;;;;;;1.50;0.70;;;21.00;35.40;;;;;;5011807;28;20377;-81
2021/04/05 06:10:58;;;;;;;1.77;0.73;;;21.00;35.50;;;;;;5028654;28;20025;-80
2021/04/05 06:13:52;;;;;;;1.80;0.90;;;21.00;35.50;;;;;;5042540;28;20423;-81
2021/04/05 06:16:33;;;;;;;1.35;0.50;;;21.00;35.50;;;;;;5045753;28;20033;-78
2021/04/05 06:18:58;;;;;;;1.50;0.80;;;21.00;35.50;;;;;;5014344;28;20029;-78
2021/04/05 06:21:57;;;;;;;1.27;0.85;;;21.00;35.60;;;;;;5030262;28;20029;-77
2021/04/05 06:24:29;;;;;;;1.23;0.68;;;21.00;35.60;;;;;;5011412;28;20033;-78
2021/04/05 06:26:59;;;;;;;;;;;21.00;35.70;;;;;;5007606;28;20021;-78
2021/04/05 06:30:01;;;;;;;2.65;0.70;;;20.90;35.70;;;;;;5039263;28;19913;-78
2021/04/05 06:33:05;;;;;;;3.88;0.90;;;20.90;35.80;;;;;;5028336;28;20126;-77
2021/04/05 06:35:54;;;;;;;1.77;0.52;;;20.90;35.80;;;;;;5013452;28;20070;-77
2021/04/05 06:38:23;;;;;;;0.93;0.60;;;20.90;35.90;;;;;;5028288;28;20112;-77
2021/04/05 06:40:52;;;;;;;1.52;0.80;;;20.90;35.90;;;;;;5014995;28;20037;-76
2021/04/05 06:43:36;;;;;;;1.42;0.68;;;20.80;35.90;;;;;;5013761;28;20033;-76
2021/04/05 06:46:21;;;;;;;1.20;0.65;;;20.80;36.00;;;;;;5026150;28;20515;-76
2021/04/05 06:49:15;;;;;;;1.60;0.95;;;20.80;36.10;;;;;;5028555;28;20029;-77
2021/04/05 06:51:50;;;;;;;1.55;0.80;;;20.70;36.10;;;;;;5035548;28;20029;-76
2021/04/05 06:54:41;;;;;;;2.85;1.35;;;20.70;36.20;;;;;;5040973;28;20040;-76
2021/04/05 06:57:49;;;;;;;1.65;0.55;;;20.60;36.30;;;;;;5022470;28;20026;-78
2021/04/05 07:00:19;;;;;;;1.33;0.50;;;20.60;36.80;;;;;;4967337;28;20439;-77
2021/04/05 07:03:27;;;;;;;1.27;0.70;;;20.60;36.90;;;;;;4956492;28;20058;-77
2021/04/05 07:06:02;;;;;;;2.03;0.70;;;20.50;36.90;;;;;;5031713;28;20084;-78
2021/04/05 07:08:34;;;;;;;0.95;0.55;;;20.50;37.00;;;;;;5029747;28;20032;-79
2021/04/05 07:11:47;;;;;;;3.28;1.15;;;20.50;37.10;;;;;;5047996;28;20048;-77
2021/04/05 07:14:31;;;;;;;2.65;0.95;;;20.50;37.20;;;;;;4980567;28;20608;-77
2021/04/05 07:17:19;;;;;;;1.70;1.00;;;20.50;37.10;;;;;;5045446;28;20066;-78
2021/04/05 07:19:57;;;;;;;3.60;0.68;;;20.50;37.20;;;;;;5034637;28;20028;-77
2021/04/05 07:22:58;;;;;;;1.83;1.02;;;20.50;37.20;;;;;;5035589;28;20033;-77
2021/04/05 07:25:46;;;;;;;2.42;1.00;;;20.50;37.20;;;;;;5038388;28;20400;-77
2021/04/05 07:28:23;;;;;;;1.27;0.77;;;20.50;37.20;;;;;;5008400;28;20116;-77
2021/04/05 07:31:20;;;;;;;2.15;0.80;;;20.50;37.10;;;;;;5022131;28;20021;-77
2021/04/05 07:33:49;;;;;;;2.13;1.17;;;20.50;37.10;;;;;;5057864;28;20107;-77
2021/04/05 07:36:26;;;;;;;2.33;0.95;;;20.50;37.10;;;;;;5057312;28;20096;-78
2021/04/05 07:39:17;;;;;;;2.70;1.20;;;20.50;37.10;;;;;;5039426;28;20029;-78
2021/04/05 07:41:46;;;;;;;1.42;0.60;;;20.50;37.10;;;;;;5026662;28;20035;-78
2021/04/05 07:44:48;;;;;;;3.60;0.93;;;20.50;37.00;;;;;;5023357;28;20025;-79
2021/04/05 07:47:14;;;;;;;1.35;0.47;;;20.60;36.90;;;;;;5032967;28;20040;-79
2021/04/05 07:49:57;;;;;;;2.75;0.75;;;20.80;36.70;;;;;;5027885;28;20404;-77
2021/04/05 07:52:29;;;;;;;3.20;0.80;;;20.90;36.50;;;;;;5055503;28;20037;-78
2021/04/05 07:54:56;;;;;;;2.42;0.95;;;20.90;36.30;;;;;;5052068;28;20028;-78
2021/04/05 07:57:38;;;;;;;3.63;0.90;;;21.00;36.30;;;;;;5016473;28;20033;-77
2021/04/05 08:00:15;;;;;;;1.60;0.60;;;21.10;36.20;;;;;;5010640;28;20025;-77
2021/04/05 08:02:43;;;;;;;2.45;0.63;;;21.10;36.10;;;;;;5035523;28;20369;-77
2021/04/05 08:05:40;;;;;;;1.83;0.90;;;21.20;36.00;;;;;;5021775;28;20047;-78
2021/04/05 08:08:28;;;;;;;2.15;0.60;;;21.30;36.00;;;;;;5025664;28;20436;-77
2021/04/05 08:11:22;;;;;;;2.53;0.43;;;21.30;36.00;;;;;;5050839;28;20078;-77
2021/04/05 08:13:48;;;;;;;1.02;0.50;;;21.40;36.00;;;;;;5035990;28;20029;-77
2021/04/05 08:16:32;;;;;;;2.05;0.70;;;21.40;35.90;;;;;;5027575;28;20048;-78
2021/04/05 08:19:36;;;;;;;1.98;0.93;;;21.40;35.90;;;;;;5031471;28;20477;-78
2021/04/05 08:22:24;;;;;;;4.32;0.63;;;21.40;35.90;;;;;;5032858;28;20029;-78
2021/04/05 08:25:05;;;;;;;1.45;0.60;;;21.40;36.00;;;;;;5032074;28;20052;-77
2021/04/05 08:27:37;;;;;;;2.58;0.80;;;21.30;36.10;;;;;;5050716;28;20033;-77
2021/04/05 08:30:21;;;;;;;1.92;0.68;;;21.30;36.10;;;;;;5033377;28;20025;-77
2021/04/05 08:33:15;;;;;;;1.17;0.73;;;21.30;36.10;;;;;;5047664;28;20025;-77
2021/04/05 08:35:45;;;;;;;2.42;0.60;;;21.30;36.20;;;;;;5014855;28;20400;-77
2021/04/05 08:38:40;;;;;;;2.05;0.82;;;21.30;36.20;;;;;;5027653;28;20104;-77
2021/04/05 08:41:36;;;;;;;0.90;0.47;;;21.20;36.20;;;;;;5039341;28;20088;-77
2021/04/05 08:44:14;;;;;;;1.58;0.40;;;21.20;36.30;;;;;;5046210;28;20026;-77
2021/04/05 08:46:40;;;;;;;1.08;0.57;;;21.20;36.30;;;;;;5033870;28;20025;-79
2021/04/05 08:49:13;;;;;;;2.03;0.60;;;21.20;36.40;;;;;;5021513;28;20025;-78
2021/04/05 08:51:46;;;;;;;3.53;0.60;;;21.20;36.50;;;;;;5020684;28;20108;-78
2021/04/05 08:54:18;;;;;;;1.27;0.35;;;21.10;36.40;;;;;;5020218;28;20037;-78
2021/04/05 08:57:00;;;;;;;2.38;0.73;;;21.10;36.50;;;;;;5021106;28;20313;-78
2021/04/05 08:59:59;;;;;;;2.78;0.55;;;21.10;36.60;;;;;;5034275;28;20036;-79
2021/04/05 09:02:36;;;;;;;1.52;0.90;;;21.10;36.60;;;;;;5033968;28;20072;-79
2021/04/05 09:05:09;;;;;;;1.58;0.57;;;21.00;36.70;;;;;;5060009;28;20623;-78
2021/04/05 09:08:11;;;;;;;3.25;0.65;;;21.00;36.70;;;;;;5044441;28;20022;-78
2021/04/05 09:10:51;;;;;;;2.95;0.60;;;20.90;36.70;;;;;;5026651;28;20036;-78
2021/04/05 09:13:42;;;;;;;1.58;0.60;;;20.90;36.70;;;;;;5018693;28;20029;-79
2021/04/05 09:16:21;;;;;;;1.75;0.50;;;20.90;36.80;;;;;;5036197;28;20075;-78
2021/04/05 09:19:30;;;;;;;3.17;0.75;;;20.90;36.80;;;;;;5020983;28;20060;-80
2021/04/05 09:22:05;;;;;;;2.35;0.75;;;20.90;36.80;;;;;;5065271;28;20083;-81
2021/04/05 09:25:04;;;;;;;3.03;0.82;;;20.90;36.80;;;;;;5040958;28;20034;-78
2021/04/05 09:27:57;;;;;;;2.00;0.70;;;20.90;36.80;;;;;;5047678;28;20076;-80
2021/04/05 09:30:47;;;;;;;1.38;0.47;;;20.90;36.80;;;;;;5031545;28;20114;-78
2021/04/05 09:33:31;;;;;;;1.00;0.50;;;20.80;36.80;;;;;;5036233;28;20052;-77
2021/04/05 09:36:05;;;;;;;1.92;0.60;;;20.80;36.80;;;;;;5032939;28;20025;-78
2021/04/05 09:39:05;;;;;;;2.85;0.50;;;20.80;36.80;;;;;;5033117;28;20021;-78
2021/04/05 09:41:49;;;;;;;1.60;0.82;;;20.80;36.80;;;;;;5016726;28;20033;-78
2021/04/05 09:44:53;;;;;;;1.80;0.47;;;20.80;36.70;;;;;;5020080;28;20052;-78
2021/04/05 09:47:44;;;;;;;1.35;0.57;;;20.80;36.80;;;;;;5034735;28;20045;-79
2021/04/05 09:50:35;;;;;;;1.30;0.40;;;20.70;36.70;;;;;;5032464;28;20013;-78
2021/04/05 09:53:42;;;;;;;1.48;0.70;;;20.80;36.80;;;;;;5015575;28;20029;-78
2021/04/05 09:56:11;;;;;;;1.55;0.40;;;20.70;36.70;;;;;;5031744;28;20028;-78
2021/04/05 09:58:55;;;;;;;1.40;0.52;;;20.70;36.70;;;;;;5031558;28;20032;-79
2021/04/05 10:01:24;;;;;;;1.17;0.40;;;20.70;36.70;;;;;;5040810;28;20029;-78
2021/04/05 10:03:56;;;;;;;0.77;0.32;;;20.80;37.10;;;;;;5036704;28;20021;-78
2021/04/05 10:06:25;;;;;;;1.30;0.50;;;20.90;36.40;;;;;;5030468;28;20093;-78
2021/04/05 10:08:53;;;;;;;1.25;0.40;;;21.00;36.30;;;;;;5047533;28;20022;-78
2021/04/05 10:11:22;;;;;;;2.72;0.50;;;21.10;36.10;;;;;;5012217;28;20148;-76
2021/04/05 10:13:58;;;;;;;0.88;0.30;;;21.20;36.00;;;;;;5018765;28;20024;-77
2021/04/05 10:16:25;;;;;;;1.27;0.38;;;21.30;35.90;;;;;;5042325;28;20051;-77
2021/04/05 10:18:58;;;;;;;1.30;0.30;;;21.40;35.90;;;;;;5052429;28;20054;-77
2021/04/05 10:21:25;;;;;;;1.83;0.30;;;21.50;35.80;;;;;;5013985;28;20120;-77
2021/04/05 10:23:55;;;;;;;2.05;0.57;;;21.50;35.70;;;;;;5048713;28;20123;-77
2021/04/05 10:26:29;;;;;;;2.28;0.50;;;21.60;35.70;;;;;;5047849;28;20017;-77
2021/04/05 10:28:56;;;;;;;1.80;0.30;;;21.60;35.70;;;;;;5033431;28;20024;-77
2021/04/05 10:31:24;;;;;;;1.50;0.47;;;21.60;35.70;;;;;;5009584;28;551946;-76
2021/04/05 10:33:57;;;;;;;1.40;0.30;;;21.60;35.70;;;;;;5052368;28;20048;-76
2021/04/05 10:36:24;;;;;;;1.55;0.30;;;21.60;35.70;;;;;;5030103;28;20109;-77
2021/04/05 10:38:52;;;;;;;2.00;0.30;;;21.60;35.70;;;;;;5015270;28;20155;-76
2021/04/05 10:41:22;;;;;;;0.43;0.10;;;21.60;35.70;;;;;;5030758;28;20615;-78
2021/04/05 10:44:04;;;;;;;1.15;0.52;;;21.60;35.80;;;;;;5016376;28;20040;-76
2021/04/05 10:46:32;;;;;;;2.42;0.30;;;21.60;35.80;;;;;;5046402;28;20392;-77
2021/04/05 10:49:05;;;;;;;1.70;0.38;;;21.60;35.80;;;;;;5030925;28;20021;-77
2021/04/05 10:51:37;;;;;;;1.42;0.28;;;21.60;35.90;;;;;;5042998;28;20025;-77
2021/04/05 10:54:16;;;;;;;1.40;0.45;;;21.50;35.80;;;;;;5026772;28;20629;-77
2021/04/05 10:56:53;;;;;;;0.63;0.32;;;21.50;35.80;;;;;;5029359;28;20033;-77
2021/04/05 10:59:25;;;;;;;1.40;0.35;;;21.50;35.90;;;;;;5021519;28;20029;-77
2021/04/05 11:01:58;;;;;;;1.13;0.20;;;21.50;36.00;;;;;;5028511;28;20032;-77
2021/04/05 11:04:26;;;;;;;1.67;0.70;;;21.50;35.90;;;;;;5034676;28;20059;-78
2021/04/05 11:06:53;;;;;;;2.15;0.30;;;21.40;35.90;;;;;;5031925;28;20021;-77
2021/04/05 11:09:21;;;;;;;1.33;0.30;;;21.40;36.00;;;;;;5028986;28;20033;-77
2021/04/05 11:11:52;;;;;;;0.80;0.70;;;21.40;36.00;;;;;;5027503;28;20782;-77
2021/04/05 11:14:22;;;;;;;1.17;0.40;;;21.40;36.10;;;;;;5052831;28;20033;-77
2021/04/05 11:16:57;;;;;;;1.00;0.47;;;21.40;36.10;;;;;;5028044;28;20284;-79
2021/04/05 11:19:31;;;;;;;1.38;0.40;;;21.30;36.10;;;;;;5031774;28;20120;-76
2021/04/05 11:21:59;;;;;;;1.35;0.22;;;21.30;36.10;;;;;;5028301;28;20028;-77
2021/04/05 11:24:31;;;;;;;1.13;0.50;;;21.30;36.10;;;;;;5046082;28;20081;-76
2021/04/05 11:26:59;;;;;;;1.83;0.35;;;21.30;36.10;;;;;;5007961;28;20040;-76
2021/04/05 11:29:28;;;;;;;1.40;0.30;;;21.20;36.10;;;;;;5025858;28;20083;-77
2021/04/05 11:31:56;;;;;;;0.98;0.47;;;21.20;36.10;;;;;;5035571;28;20029;-77
2021/04/05 11:34:37;;;;;;;2.03;0.30;;;21.20;36.10;;;;;;5032654;28;20021;-77
2021/04/05 11:37:09;;;;;;;1.50;0.25;;;21.20;36.10;;;;;;5048414;28;20021;-77
2021/04/05 11:39:37;;;;;;;0.90;0.40;;;21.20;36.10;;;;;;5033295;28;20489;-77
2021/04/05 11:42:05;;;;;;;0.88;0.20;;;21.10;36.60;;;;;;5046093;28;20030;-78
2021/04/05 11:44:39;;;;;;;0.80;0.20;;;21.10;36.10;;;;;;5053707;28;20125;-77
2021/04/05 11:47:07;;;;;;;0.65;0.20;;;21.10;36.00;;;;;;5044557;28;20068;-77
2021/04/05 11:49:34;;;;;;;0.70;0.28;;;21.00;36.10;;;;;;5051725;28;20028;-77
2021/04/05 11:52:19;;;;;;;1.75;0.30;;;21.10;36.10;;;;;;5047548;28;20069;-78
2021/04/05 11:55:06;;;;;;;1.00;0.43;;;21.10;36.10;;;;;;5032850;28;20089;-77
2021/04/05 11:57:38;;;;;;;2.58;0.20;;;21.00;36.10;;;;;;5024510;28;20022;-77
2021/04/05 12:00:08;;;;;;;0.98;0.20;;;21.00;36.10;;;;;;5016185;28;20041;-77
2021/04/05 12:02:47;;;;;;;0.73;0.20;;;21.00;36.10;;;;;;5033726;28;20029;-77
2021/04/05 12:05:30;;;;;;;1.65;0.22;;;21.00;36.10;;;;;;5044192;28;20021;-77
2021/04/05 12:08:02;;;;;;;2.58;0.28;;;21.00;36.10;;;;;;5009691;28;20021;-77
2021/04/05 12:10:30;;;;;;;0.43;0.13;;;21.10;36.10;;;;;;5045569;28;20691;-77
2021/04/05 12:13:17;;;;;;;2.38;0.20;;;21.10;36.00;;;;;;5032810;28;20499;-77
2021/04/05 12:15:46;;;;;;;0.98;0.20;;;21.20;36.00;;;;;;5051325;28;20407;-77
2021/04/05 12:18:13;;;;;;;1.67;0.20;;;21.10;35.90;;;;;;5027417;28;20021;-77
2021/04/05 12:20:40;;;;;;;0.85;0.20;;;21.20;35.90;;;;;;5046352;28;20048;-77
2021/04/05 12:23:08;;;;;;;1.00;0.17;;;21.10;35.80;;;;;;5034756;28;20036;-77
2021/04/05 12:25:45;;;;;;;1.13;0.30;;;21.10;35.80;;;;;;5013260;28;20029;-77
2021/04/05 12:28:12;;;;;;;0.90;0.20;;;21.10;35.80;;;;;;5042159;28;20052;-77
2021/04/05 12:30:39;;;;;;;0.88;0.35;;;21.00;36.00;;;;;;5045960;28;20029;-77
2021/04/05 12:33:10;;;;;;;0.60;0.20;;;21.00;36.10;;;;;;5026193;28;20089;-77
2021/04/05 12:35:36;;;;;;;1.33;0.20;;;21.10;36.10;;;;;;5031817;28;20033;-77
2021/04/05 12:38:06;;;;;;;1.35;0.13;;;21.10;36.00;;;;;;5009748;28;20047;-77
2021/04/05 12:40:35;;;;;;;0.50;0.10;;;21.10;35.90;;;;;;5041805;28;20021;-77
2021/04/05 12:43:06;;;;;;;0.60;0.10;;;21.20;35.80;;;;;;5027965;28;20106;-77
2021/04/05 12:45:34;;;;;;;1.15;0.15;;;21.40;35.60;;;;;;5031061;28;20036;-77
2021/04/05 12:48:01;;;;;;;0.50;0.10;;;21.50;35.40;;;;;;5044109;28;20632;-77
2021/04/05 12:50:32;;;;;;;2.00;0.40;;;21.60;35.30;;;;;;5029053;28;20023;-77
2021/04/05 12:53:03;;;;;;;0.63;0.20;;;21.70;35.10;;;;;;5026996;28;20021;-77
2021/04/05 12:55:35;;;;;;;0.90;0.10;;;21.70;35.00;;;;;;5051696;28;20445;-77
2021/04/05 12:58:01;;;;;;;;;;;21.70;35.00;;;;;;5042491;28;20021;-77
2021/04/05 13:00:28;;;;;;;1.20;0.10;;;21.80;35.20;;;;;;5047886;28;20382;-77
2021/04/05 13:03:03;;;;;;;0.80;0.20;;;21.90;34.90;;;;;;5023849;28;20032;-77
2021/04/05 13:05:37;;;;;;;1.05;0.10;;;21.90;34.70;;;;;;5042988;28;20041;-77
2021/04/05 13:08:11;;;;;;;2.83;0.28;;;22.10;34.80;;;;;;5017115;28;20021;-78
2021/04/05 13:10:50;;;;;;;1.13;0.15;;;22.10;34.60;;;;;;5026977;28;20100;-76
2021/04/05 13:13:20;;;;;;;1.77;0.20;;;22.20;34.60;;;;;;5028496;28;20069;-76
2021/04/05 13:15:53;;;;;;;1.17;0.40;;;22.20;34.40;;;;;;5042669;28;20040;-77
2021/04/05 13:18:28;;;;;;;0.95;0.20;;;22.20;34.30;;;;;;5050297;28;20079;-77
2021/04/05 13:20:59;;;;;;;1.25;0.20;;;22.20;34.30;;;;;;5027098;28;20389;-77
2021/04/05 13:23:27;;;;;;;0.50;0.10;;;22.20;34.30;;;;;;5025857;28;20044;-77
2021/04/05 13:26:28;;;;;;;1.88;0.20;;;22.20;34.30;;;;;;5016691;28;20066;-77